Friday, July 1, 2016, 5:48 AM EDT

KMUI, Muir Army Air Field / Indiantown

Location: Jonestown, PA, United States Lat: 40.433
Local Time: 5:48 AM EDT ( 9:48 GMT) Lon: -76.567
Time Zone: US/Eastern Elev: 488 ft

Show me the last for .
Show Decoded

2016-07-01 04:58 METAR KMUI 010858Z AUTO 00000KT 10SM BKN230 16/15 A2999 RMK AO2 SLP156 T01640153
                 56005 $ =
2016-07-01 03:58 METAR KMUI 010758Z AUTO 00000KT 10SM OVC044 16/15 A2999 RMK AO2 SLP156 T01620152
                 $ =
2016-07-01 02:58 METAR KMUI 010658Z AUTO 04002KT 10SM CLR 15/15 A3000 RMK AO2 SLP159 T01530147 $
                 =
2016-07-01 01:58 METAR KMUI 010558Z AUTO 00000KT 10SM CLR 16/15 A3001 RMK AO2 SLP163 T01620149
                 10259 20157 58003 $ =
2016-07-01 00:58 METAR KMUI 010458Z AUTO 04002KT 10SM CLR 16/14 A3002 RMK AO2 SLP166 T01580144
                 402850138 $ =
2016-06-30 23:58 METAR KMUI 010358Z AUTO 04002KT 10SM CLR 17/14 A3002 RMK AO2 SLP166 T01660142 $
                 =
2016-06-30 22:58 METAR KMUI 010258Z AUTO 03002KT 10SM CLR 18/14 A3002 RMK AO2 SLP166 T01790142
                 50004 $ =
2016-06-30 21:58 METAR KMUI 010158Z AUTO 03002KT 10SM CLR 19/14 A3002 RMK AO2 SLP166 T01890138 $
                 =
2016-06-30 20:58 METAR KMUI 010058Z AUTO 35001KT 10SM FEW070 21/14 A3002 RMK AO2 SLP166 T02090143
                 $ =
2016-06-30 19:58 METAR KMUI 302358Z AUTO 18004KT 10SM CLR 26/12 A3001 RMK AO2 SLP162 T02620124
                 10285 20262 55000 $ =
2016-06-30 18:58 METAR KMUI 302258Z AUTO 20005KT 10SM CLR 27/12 A3000 RMK AO2 SLP159 T02700124 $
                 =
2016-06-30 17:58 METAR KMUI 302158Z AUTO 23004KT 10SM CLR 28/11 A2999 RMK AO2 SLP156 T02820106 $
                 =
2016-06-30 16:58 METAR KMUI 302058Z AUTO 18004KT 10SM CLR 28/12 A3001 RMK AO2 SLP163 T02810124
                 57007 $ =
2016-06-30 15:58 METAR KMUI 301958Z AUTO VRB03KT 10SM FEW060 SCT080 BKN180 27/13 A3002 RMK AO2
                 SLP166 T02730132 $ =
2016-06-30 14:58 METAR KMUI 301858Z AUTO VRB03KT 10SM BKN055 BKN080 BKN180 27/13 A3002 RMK AO2
                 SLP166 T02660134 $ =
2016-06-30 13:58 METAR KMUI 301758Z AUTO VRB03KT 10SM SCT055 26/13 A3003 RMK AO2 SLP170 T02630125
                 10271 20203 58012 $ =
2016-06-30 12:58 METAR KMUI 301658Z AUTO 24004KT 10SM FEW180 27/13 A3004 RMK AO2 SLP173 T02680130
                 $ =
2016-06-30 11:58 METAR KMUI 301558Z AUTO VRB04KT 10SM CLR 26/14 A3006 RMK AO2 SLP179 T02560136 $
                 =
2016-06-30 10:58 METAR KMUI 301458Z AUTO 23003KT 10SM SCT047 BKN060 BKN075 24/13 A3006 RMK AO2
                 SLP179 T02430130 50005 $ =
2016-06-30 09:58 METAR KMUI 301358Z AUTO 05003KT 10SM CLR 24/14 A3005 RMK AO2 SLP176 T02400143 $
                 =
2016-06-30 08:58 METAR KMUI 301258Z AUTO VRB03KT 10SM CLR 23/14 A3006 RMK AO2 SLP179 T02300143 $
                 =
2016-06-30 07:58 METAR KMUI 301158Z AUTO VRB01KT 10SM CLR 20/14 A3005 RMK AO2 SLP176 T02010136
                 10201 20138 52009 $ =
2016-06-30 06:58 METAR KMUI 301058Z AUTO 11001KT 10SM CLR 16/14 A3005 RMK AO2 SLP176 T01610137 $
                 =
2016-06-30 05:58 METAR KMUI 300958Z AUTO 00000KT 10SM CLR 15/13 A3003 RMK AO2 SLP170 T01510126 $
                 =

Support USWX by starting your Amazon purchase here.